Glens Falls, NY (12801)

08:36 EDT le 19 avril 2015 (GMT -0400)
Rolling Ridge | | Change Station
CLOSE
Current Station
Stations météorologiques personnelles
Location: Queensbury, NY
Altitude: 344 ft
Stations météo à proximité

Alt. 344 ft 43.35 °N, 73.62 °W | Updated 1 minute ago

Clear
Ciel dégagé
43.2 ° F
Paraît 43 ° F
N
3.0
Vent Variable Vent de ESE
Gusts 6.0 mph

Aujourd'hui
Haut(e) -- | Bas -- ° F
--% Risque de précip.
Hier
Haut(e) -- | Bas -- ° F
Precip. -- pouce
6:06 AM 7:41 PM
Nouvelle lune, 1% visible
Pression 30.30 pouce
Visibilité 10.0 Miles terrestres
Nuages Ciel dégagé
Refroidissement éolien 43 ° F
Point de rosée 32 ° F
Humidité 65%
Précipitations 0.00 pouce
Profondeur de la couche neigeuse Non disponible.
UV 12.1 sur 12
Pollen 10.10 sur 12
Qualité de l'air Non disponible.
Flu Activity Widespread
METAR KGFL 191153Z AUTO 03007KT 360V060 10SM CLR 06/M01 A3029 RMK AO2 SLP259 T00561006 10067 21011 51017

More Conditions Fewer Conditions

Pression 30.30 pouce
Visibilité 10.0 Miles terrestres
Nuages Ciel dégagé
Refroidissement éolien 43 ° F
Point de rosée 32 ° F
Humidité 65%
Précipitations 0.00 pouce
Profondeur de la couche neigeuse Non disponible.
UV 12.1 sur 12
Pollen 10.10 sur 12
Qualité de l'air Non disponible.
Flu Activity Widespread
METAR KGFL 191153Z AUTO 03007KT 360V060 10SM CLR 06/M01 A3029 RMK AO2 SLP259 T00561006 10067 21011 51017

More Conditions Fewer Conditions

10-Day Weather Forecast

Almanac

Astronomie

Apr. 19, 2015 Lever Coucher
Temps réel
Crépuscule civil
Crépuscule nautique
Crépuscule astronomique
Lune
Durée de lumière visible
Longueur du jour
Tomorrow will be .
, % of the Moon is Illuminated

Extrêmes aujourd'hui

State Highs State Lows

Community

WunderPhotos

Upload Photos

1,814,771 Photos téléchargées !

WunderBlogs® & News

Nearby

Qualité de l'air

  Qualité de l'air Indice de la qualité de l'air Polluant
Not available.

Épaisseur de neige

Station Depth Altitude

Activité sismique

Ville Distance Mag. Time & Date
Minimum magnitude displayed is 2.5.

Températures des eaux côtières

Lieu Température

Stations

Stations météo à proximité

Emplacement de la station Température Refroidissement éolien Point de rosée Humidité Vent Precip. Alt. Mise à jour Type